الكل
Bellevue Airport (Bellevue, Western Australia) YBLU حالة الطقس
There is no TAF data available at YBLU. Showing TAF data for YLST (17 mi جنوب).
توقع منطقة محطة المطار LER (لا توجد بيانات لـYBLU)
| Date | Time (AWST) | Flight Rules | Wind Dir. | Speed | Type | Height AGL (ft) | Visibility | Remarks | ||||||
|---|---|---|---|---|---|---|---|---|---|---|---|---|---|---|
There is no METAR data available at YBLU. Showing METAR data for YLST (17 mi جنوب).
محفوظات أحدث تقرير روتيني عن حالة الطقس من أجل الطيران (الميتار) LER ( لا توجد بيانات لـYBLU)
| Date | Time (AWST) | Flight Rules | Wind Dir. | Speed | Type | Height AGL (ft) | Visibility | Temp (°C) | Temp (°F) | Dew Point (°C) | Dew Point (°F) | Rel. Humid. | Pressure | Density Altitude | Remarks |
|---|---|---|---|---|---|---|---|---|---|---|---|---|---|---|---|
| 02-ماي | 23:00 | VFR | 130° | 4 kt | 10000 meters | 11° | 51° | 4° | 39° | 62% | 1021 mb | 1,158 ft | |||
| 02-ماي | 22:00 | VFR | 150° | 3 kt | 10000 meters | 12° | 53° | 4° | 39° | 58% | 1022 mb | 1,249 ft | |||
| 02-ماي | 21:00 | VFR | 150° | 1 kt | 10000 meters | 12° | 53° | 4° | 39° | 58% | 1021 mb | 1,278 ft | |||
| 02-ماي | 20:00 | VFR | 140° | 4 kt | 10000 meters | 14° | 57° | 3° | 37° | 47% | 1021 mb | 1,518 ft | |||
| 02-ماي | 19:00 | VFR | 170° | 6 kt | 10000 meters | 14° | 57° | 3° | 37° | 47% | 1021 mb | 1,518 ft | |||
| 02-ماي | 18:00 | VFR | 170° | 8 kt | 10000 meters | 15° | 59° | 2° | 35° | 41% | 1020 mb | 1,668 ft | |||
| 02-ماي | 17:00 | VFR | 170° | 9 kt | 10000 meters | 16° | 60° | 2° | 35° | 39% | 1020 mb | 1,788 ft | |||
| 02-ماي | 16:00 | VFR | 180° | 7 kt | 10000 meters | 17° | 62° | 1° | 33° | 34% | 1019 mb | 1,938 ft | |||
| 02-ماي | 15:00 | VFR | 170° | 7 kt | 10000 meters | 17° | 62° | 1° | 33° | 34% | 1020 mb | 1,908 ft | |||
| 02-ماي | 14:00 | VFR | 170° | 7 kt | 10000 meters | 16° | 60° | 2° | 35° | 39% | 1020 mb | 1,788 ft | |||
| 02-ماي | 13:00 | VFR | 150° | 7 kt | 10000 meters | 16° | 60° | 2° | 35° | 39% | 1020 mb | 1,788 ft | |||
| 02-ماي | 12:00 | VFR | 160° | 11 kt | 10000 meters | 15° | 59° | 2° | 35° | 41% | 1021 mb | 1,638 ft | |||
| 02-ماي | 11:00 | VFR | 120° | 7 kt | 10000 meters | 14° | 57° | 2° | 35° | 44% | 1022 mb | 1,489 ft | |||
| 02-ماي | 10:00 | VFR | 150° | 9 kt | 10000 meters | 12° | 53° | 3° | 37° | 54% | 1023 mb | 1,219 ft | |||
| 02-ماي | 09:00 | VFR | 150° | 9 kt | 10000 meters | 11° | 51° | 3° | 37° | 58% | 1022 mb | 1,129 ft | |||
| 02-ماي | 08:00 | VFR | 160° | 8 kt | 10000 meters | 9° | 48° | 2° | 35° | 61% | 1022 mb | 889 ft | |||
| 02-ماي | 07:00 | VFR | 160° | 4 kt | 10000 meters | 6° | 42° | 1° | 33° | 70% | 1022 mb | 529 ft | |||
| 02-ماي | 06:00 | VFR | 160° | 5 kt | 10000 meters | 6° | 42° | 1° | 33° | 70% | 1021 mb | 558 ft | |||
| 02-ماي | 05:00 | VFR | 170° | 6 kt | 10000 meters | 7° | 44° | 1° | 33° | 66% | 1021 mb | 678 ft | |||
| 02-ماي | 04:00 | VFR | 170° | 6 kt | 10000 meters | 7° | 44° | 1° | 33° | 66% | 1020 mb | 708 ft | |||
| 02-ماي | 03:00 | VFR | 170° | 8 kt | 10000 meters | 8° | 46° | 1° | 33° | 61% | 1020 mb | 828 ft | |||
| 02-ماي | 02:00 | VFR | 180° | 8 kt | 10000 meters | 9° | 48° | 1° | 33° | 57% | 1020 mb | 948 ft | |||
| 02-ماي | 01:00 | VFR | 170° | 7 kt | 10000 meters | 10° | 50° | 1° | 33° | 53% | 1021 mb | 1,038 ft | |||
| 02-ماي | 00:00 | VFR | 170° | 10 kt | 10000 meters | 10° | 50° | 0° | 32° | 50% | 1020 mb | 1,068 ft |
تسجيل الدخول
| مُتصفحك غير مُدعَّم. قم بترقية متصفحك |
